Time;durP1;ratioP1;P1;durP2;ratioP2;P2;SDS_P1;SDS_P2;PMS_P1;PMS_P2;Temp;Humidity;BMP_temperature;BMP_pressure;BME280_temperature;BME280_humidity;BME280_pressure;Samples;Min_cycle;Max_cycle;Signal;HPM_P1;HPM_P2
2023/01/16 00:00:46;;;;;;;8.90;8.50;;;;;;;;;;5092977;28;20020;-67
2023/01/16 00:03:11;;;;;;;9.20;8.80;;;;;;;;;;5104530;28;20040;-66
2023/01/16 00:05:36;;;;;;;9.02;8.63;;;;;;;;;;5083417;28;20027;-66
2023/01/16 00:08:02;;;;;;;10.00;9.50;;;;;;;;;;5097189;28;20543;-65
2023/01/16 00:10:27;;;;;;;9.70;9.20;;;;;;;;;;5099733;28;20028;-65
2023/01/16 00:12:52;;;;;;;9.40;9.00;;;;;;;;;;5104934;28;20023;-66
2023/01/16 00:15:18;;;;;;;10.02;9.52;;;;;;;;;;5094950;28;20032;-66
2023/01/16 00:17:43;;;;;;;9.23;8.82;;;;;;;;;;5105366;28;20032;-67
2023/01/16 00:20:09;;;;;;;9.63;9.13;;;;;;;;;;5102750;28;20438;-65
2023/01/16 00:22:34;;;;;;;9.35;8.93;;;;;;;;;;5097265;28;20370;-66
2023/01/16 00:24:59;;;;;;;9.77;9.27;;;;;;;;;;5089735;28;20032;-68
2023/01/16 00:27:24;;;;;;;9.23;8.82;;;;;;;;;;5105302;28;20061;-69
2023/01/16 00:29:50;;;;;;;10.00;9.50;;;;;;;;;;5084939;28;20462;-69
2023/01/16 00:32:15;;;;;;;9.18;8.77;;;;;;;;;;5098611;28;20399;-69
2023/01/16 00:34:41;;;;;;;9.90;9.40;;;;;;;;;;5094158;28;20025;-69
2023/01/16 00:37:06;;;;;;;9.38;8.88;;;;;;;;;;5098424;28;20123;-69
2023/01/16 00:39:32;;;;;;;9.55;9.07;;;;;;;;;;5097151;28;20011;-68
2023/01/16 00:41:57;;;;;;;9.52;9.02;;;;;;;;;;5098667;28;20027;-68
2023/01/16 00:44:23;;;;;;;9.57;9.07;;;;;;;;;;5099206;28;20387;-68
2023/01/16 00:46:48;;;;;;;9.35;8.90;;;;;;;;;;5082154;28;20043;-68
2023/01/16 00:49:13;;;;;;;9.88;9.38;;;;;;;;;;5094663;28;20105;-68
2023/01/16 00:51:39;;;;;;;10.10;9.60;;;;;;;;;;5098702;28;20385;-69
2023/01/16 00:54:04;;;;;;;10.32;9.75;;;;;;;;;;5099433;28;20046;-68
2023/01/16 00:56:29;;;;;;;10.20;9.68;;;;;;;;;;5084511;28;20020;-68
2023/01/16 00:58:55;;;;;;;10.52;9.95;;;;;;;;;;5100085;28;20026;-65
2023/01/16 01:01:20;;;;;;;9.20;8.80;;;;;;;;;;5098427;28;20021;-68
2023/01/16 01:03:45;;;;;;;9.05;8.65;;;;;;;;;;5098919;28;20096;-68
2023/01/16 01:06:11;;;;;;;9.15;8.75;;;;;;;;;;5098132;28;20459;-69
2023/01/16 01:08:36;;;;;;;9.18;8.77;;;;;;;;;;5096829;28;20038;-68
2023/01/16 01:11:06;;;;;;;9.55;9.05;;;;;;;;;;5098032;28;20028;-67
2023/01/16 01:13:31;;;;;;;9.10;8.70;;;;;;;;;;5099523;28;20030;-67
2023/01/16 01:15:56;;;;;;;9.60;9.10;;;;;;;;;;5089338;28;20518;-67
2023/01/16 01:18:21;;;;;;;10.50;9.90;;;;;;;;;;5076477;28;20038;-67
2023/01/16 01:20:47;;;;;;;9.10;8.70;;;;;;;;;;5073856;28;20016;-67
2023/01/16 01:23:12;;;;;;;10.25;9.70;;;;;;;;;;5100701;28;20043;-66
2023/01/16 01:25:38;;;;;;;10.43;9.82;;;;;;;;;;5095530;28;20024;-66
2023/01/16 01:28:04;;;;;;;9.68;9.18;;;;;;;;;;5097177;28;20016;-66
2023/01/16 01:30:29;;;;;;;9.52;9.02;;;;;;;;;;5095646;28;20024;-66
2023/01/16 01:32:54;;;;;;;9.10;8.70;;;;;;;;;;5098154;28;20043;-65
2023/01/16 01:35:20;;;;;;;9.85;9.35;;;;;;;;;;5097634;28;20024;-66
2023/01/16 01:37:45;;;;;;;9.20;8.80;;;;;;;;;;5099100;28;20023;-66
2023/01/16 01:40:11;;;;;;;9.45;8.98;;;;;;;;;;5102047;28;20149;-66
2023/01/16 01:42:43;;;;;;;9.05;8.65;;;;;;;;;;5095185;28;20106;-66
2023/01/16 01:45:15;;;;;;;9.73;9.23;;;;;;;;;;5095060;28;20020;-66
2023/01/16 01:47:43;;;;;;;9.05;8.65;;;;;;;;;;5094757;28;20047;-65
2023/01/16 01:50:35;;;;;;;10.05;9.55;;;;;;;;;;5094648;28;20054;-66
2023/01/16 01:53:03;;;;;;;9.77;9.27;;;;;;;;;;5074008;28;20071;-66
2023/01/16 01:55:29;;;;;;;9.50;9.00;;;;;;;;;;5098093;28;20072;-66
2023/01/16 01:57:57;;;;;;;9.10;8.68;;;;;;;;;;5096096;28;20055;-67
2023/01/16 02:00:24;;;;;;;9.13;8.73;;;;;;;;;;5095608;28;20074;-67
2023/01/16 02:03:07;;;;;;;8.80;8.40;;;;;;;;;;5102325;28;20019;-67
2023/01/16 02:05:35;;;;;;;9.75;9.25;;;;;;;;;;5096543;28;20028;-66
2023/01/16 02:08:02;;;;;;;9.38;8.88;;;;;;;;;;5098469;28;20024;-67
2023/01/16 02:10:30;;;;;;;9.82;9.32;;;;;;;;;;5098983;28;20015;-66
2023/01/16 02:12:55;;;;;;;8.95;8.55;;;;;;;;;;5090099;28;20020;-66
2023/01/16 02:15:22;;;;;;;9.50;9.00;;;;;;;;;;5094317;28;20015;-66
2023/01/16 02:20:34;;;;;;;9.60;9.10;;;;;;;;;;5096458;28;20527;-66
2023/01/16 02:23:18;;;;;;;9.57;9.07;;;;;;;;;;5095494;28;20035;-66
2023/01/16 02:25:43;;;;;;;9.48;8.98;;;;;;;;;;5098764;28;20023;-66
2023/01/16 02:28:14;;;;;;;9.63;9.13;;;;;;;;;;5099123;28;20024;-66
2023/01/16 02:30:45;;;;;;;9.45;8.98;;;;;;;;;;5090270;28;20028;-66
2023/01/16 02:33:29;;;;;;;9.13;8.73;;;;;;;;;;5099180;28;20016;-66
2023/01/16 02:36:09;;;;;;;9.50;9.00;;;;;;;;;;5094851;28;20035;-66
2023/01/16 02:38:43;;;;;;;9.68;9.18;;;;;;;;;;5096752;28;20596;-67
2023/01/16 02:41:17;;;;;;;9.20;8.80;;;;;;;;;;5094391;28;20050;-66
2023/01/16 02:43:42;;;;;;;;;;;;;;;;;;5097562;28;20026;-66
2023/01/16 02:46:11;;;;;;;8.80;8.40;;;;;;;;;;5096005;28;19911;-67
2023/01/16 02:48:59;;;;;;;9.00;8.60;;;;;;;;;;5080426;28;20747;-66
2023/01/16 02:51:32;;;;;;;9.63;9.13;;;;;;;;;;5086942;28;20066;-67
2023/01/16 02:54:03;;;;;;;10.05;9.55;;;;;;;;;;5085474;28;20093;-67
2023/01/16 02:56:36;;;;;;;9.60;9.10;;;;;;;;;;5099721;28;20111;-67
2023/01/16 02:59:01;;;;;;;9.57;9.07;;;;;;;;;;5098850;28;20040;-67
2023/01/16 03:01:26;;;;;;;9.65;9.15;;;;;;;;;;5077950;28;20053;-67
2023/01/16 03:03:55;;;;;;;9.65;9.18;;;;;;;;;;5100232;28;20018;-67
2023/01/16 03:06:27;;;;;;;9.15;8.75;;;;;;;;;;5100050;28;20424;-66
2023/01/16 03:08:59;;;;;;;9.68;9.18;;;;;;;;;;5098248;28;20027;-67
2023/01/16 03:11:26;;;;;;;9.77;9.27;;;;;;;;;;5093704;28;20015;-67
2023/01/16 03:14:03;;;;;;;9.15;8.75;;;;;;;;;;5074709;28;20105;-66
2023/01/16 03:16:40;;;;;;;9.40;8.90;;;;;;;;;;5094854;28;20076;-65
2023/01/16 03:19:26;;;;;;;9.65;9.15;;;;;;;;;;5097523;28;20474;-66
2023/01/16 03:21:58;;;;;;;9.77;9.27;;;;;;;;;;5090344;28;20063;-67
2023/01/16 03:24:26;;;;;;;9.05;8.65;;;;;;;;;;5099050;28;20015;-67
2023/01/16 03:27:14;;;;;;;9.82;9.32;;;;;;;;;;5094129;28;20376;-67
2023/01/16 03:29:43;;;;;;;9.70;9.20;;;;;;;;;;5100042;28;20027;-66
2023/01/16 03:32:17;;;;;;;9.80;9.30;;;;;;;;;;5095684;28;20108;-66
2023/01/16 03:34:42;;;;;;;;;;;;;;;;;;5094558;28;20035;-66
2023/01/16 03:37:10;;;;;;;9.57;9.07;;;;;;;;;;5097943;28;19915;-67
2023/01/16 03:39:38;;;;;;;10.02;9.52;;;;;;;;;;5095950;28;20256;-66
2023/01/16 03:42:07;;;;;;;9.82;9.32;;;;;;;;;;5099372;28;20100;-66
2023/01/16 03:44:37;;;;;;;9.52;9.02;;;;;;;;;;5092742;28;20070;-66
2023/01/16 03:47:05;;;;;;;9.20;8.73;;;;;;;;;;5094112;28;20062;-66
2023/01/16 03:49:41;;;;;;;9.48;8.98;;;;;;;;;;5098293;28;20032;-67
2023/01/16 03:52:09;;;;;;;9.80;9.30;;;;;;;;;;5075989;28;20471;-66
2023/01/16 03:54:40;;;;;;;9.43;8.93;;;;;;;;;;5097188;28;20533;-67
2023/01/16 03:57:06;;;;;;;10.63;10.02;;;;;;;;;;5091337;28;20019;-65
2023/01/16 03:59:31;;;;;;;9.60;9.10;;;;;;;;;;5103620;28;20011;-65
2023/01/16 04:01:58;;;;;;;10.13;9.63;;;;;;;;;;5089215;28;20027;-66
2023/01/16 04:04:33;;;;;;;9.77;9.27;;;;;;;;;;5102250;28;20020;-66
2023/01/16 04:07:20;;;;;;;11.32;10.63;;;;;;;;;;5085749;28;20522;-65
2023/01/16 04:09:48;;;;;;;9.38;8.88;;;;;;;;;;5093428;28;20602;-66
2023/01/16 04:12:17;;;;;;;9.77;9.27;;;;;;;;;;5093754;28;20093;-65
2023/01/16 04:14:43;;;;;;;10.07;9.57;;;;;;;;;;5098404;28;20192;-65
2023/01/16 04:17:09;;;;;;;9.88;9.38;;;;;;;;;;5090732;28;20533;-66
2023/01/16 04:19:34;;;;;;;9.50;9.00;;;;;;;;;;5093903;28;20020;-65
2023/01/16 04:22:04;;;;;;;9.63;9.13;;;;;;;;;;5098945;28;20016;-65
2023/01/16 04:24:29;;;;;;;10.13;9.63;;;;;;;;;;5087925;28;20024;-65
2023/01/16 04:26:55;;;;;;;9.02;8.63;;;;;;;;;;5101300;28;20118;-65
2023/01/16 04:29:20;;;;;;;9.63;9.13;;;;;;;;;;5103538;28;20019;-65
2023/01/16 04:31:45;;;;;;;9.95;9.45;;;;;;;;;;5103324;28;20031;-66
2023/01/16 04:34:11;;;;;;;9.57;9.07;;;;;;;;;;5096313;28;20027;-66
2023/01/16 04:36:36;;;;;;;9.77;9.27;;;;;;;;;;5085083;28;20034;-66
2023/01/16 04:39:01;;;;;;;9.80;9.30;;;;;;;;;;5105009;28;20050;-65
2023/01/16 04:41:36;;;;;;;10.00;9.50;;;;;;;;;;5095275;28;20035;-66
2023/01/16 04:44:02;;;;;;;9.73;9.23;;;;;;;;;;5098785;28;20028;-65
2023/01/16 04:46:28;;;;;;;9.95;9.45;;;;;;;;;;5090604;28;20020;-68
2023/01/16 04:48:53;;;;;;;10.77;10.18;;;;;;;;;;5089881;28;20429;-66
2023/01/16 04:51:19;;;;;;;9.98;9.48;;;;;;;;;;5098549;28;20476;-68
2023/01/16 04:53:44;;;;;;;9.32;8.82;;;;;;;;;;5098749;28;20044;-66
2023/01/16 04:56:09;;;;;;;10.13;9.63;;;;;;;;;;5094218;28;20455;-67
2023/01/16 04:58:34;;;;;;;9.50;9.00;;;;;;;;;;5100159;28;20038;-67
2023/01/16 05:01:00;;;;;;;9.65;9.15;;;;;;;;;;5072882;28;20016;-67
2023/01/16 05:03:25;;;;;;;9.93;9.43;;;;;;;;;;5094580;28;20458;-68
2023/01/16 05:05:50;;;;;;;10.50;9.90;;;;;;;;;;5094411;28;20016;-67
2023/01/16 05:08:16;;;;;;;9.38;8.90;;;;;;;;;;5098706;28;20020;-67
2023/01/16 05:10:41;;;;;;;10.32;9.75;;;;;;;;;;5093636;28;20024;-66
2023/01/16 05:13:06;;;;;;;10.10;9.60;;;;;;;;;;5095868;28;20024;-68
2023/01/16 05:15:32;;;;;;;10.55;9.95;;;;;;;;;;5091472;28;20569;-67
2023/01/16 05:17:58;;;;;;;9.98;9.48;;;;;;;;;;5096910;28;20028;-66
2023/01/16 05:20:24;;;;;;;9.70;9.20;;;;;;;;;;5079124;28;20028;-67
2023/01/16 05:22:49;;;;;;;9.90;9.40;;;;;;;;;;5103528;28;20069;-67
2023/01/16 05:25:15;;;;;;;10.77;10.18;;;;;;;;;;5094690;28;20471;-67
2023/01/16 05:27:40;;;;;;;10.02;9.52;;;;;;;;;;5096870;28;20032;-66
2023/01/16 05:30:05;;;;;;;10.82;10.23;;;;;;;;;;5093247;28;20170;-66
2023/01/16 05:32:31;;;;;;;9.20;8.80;;;;;;;;;;5079536;28;20459;-67
2023/01/16 05:34:56;;;;;;;9.70;9.20;;;;;;;;;;5098008;28;20020;-67
2023/01/16 05:37:22;;;;;;;10.43;9.82;;;;;;;;;;5100520;28;20034;-67
2023/01/16 05:39:47;;;;;;;11.32;10.63;;;;;;;;;;5096059;28;20056;-68
2023/01/16 05:42:21;;;;;;;10.90;10.30;;;;;;;;;;5095474;28;20447;-67
2023/01/16 05:44:49;;;;;;;10.25;9.65;;;;;;;;;;5091375;28;20035;-66
2023/01/16 05:47:15;;;;;;;9.95;9.45;;;;;;;;;;5074583;28;20072;-67
2023/01/16 05:49:40;;;;;;;11.00;10.40;;;;;;;;;;5091717;28;20433;-67
2023/01/16 05:52:05;;;;;;;10.50;9.90;;;;;;;;;;5097151;28;20016;-69
2023/01/16 05:54:31;;;;;;;9.50;9.05;;;;;;;;;;5095410;28;20044;-68
2023/01/16 05:56:56;;;;;;;9.68;9.18;;;;;;;;;;5083302;28;20545;-68
2023/01/16 05:59:21;;;;;;;10.70;10.10;;;;;;;;;;5094472;28;20019;-68
2023/01/16 06:01:47;;;;;;;10.35;9.77;;;;;;;;;;5079965;28;20011;-70
2023/01/16 06:04:12;;;;;;;10.23;9.73;;;;;;;;;;5088403;28;20063;-68
2023/01/16 06:06:37;;;;;;;10.05;9.55;;;;;;;;;;5085996;28;20431;-67
2023/01/16 06:09:02;;;;;;;10.55;9.95;;;;;;;;;;5093462;28;20055;-64
2023/01/16 06:11:28;;;;;;;9.85;9.35;;;;;;;;;;5095115;28;20487;-64
2023/01/16 06:13:53;;;;;;;9.60;9.10;;;;;;;;;;5098041;28;20104;-65
2023/01/16 06:16:18;;;;;;;9.55;9.05;;;;;;;;;;5093426;28;20020;-65
2023/01/16 06:18:44;;;;;;;10.05;9.55;;;;;;;;;;5089934;28;20035;-66
2023/01/16 06:21:09;;;;;;;9.57;9.07;;;;;;;;;;5099715;28;20008;-67
2023/01/16 06:23:34;;;;;;;10.25;9.68;;;;;;;;;;5094905;28;20022;-63
2023/01/16 06:26:01;;;;;;;9.73;9.23;;;;;;;;;;5089737;28;20062;-66
2023/01/16 06:28:26;;;;;;;9.13;8.73;;;;;;;;;;5092966;28;20020;-63
2023/01/16 06:30:54;;;;;;;10.48;9.88;;;;;;;;;;5096827;28;20124;-66
2023/01/16 06:33:19;;;;;;;8.90;8.50;;;;;;;;;;5091266;28;20055;-63
2023/01/16 06:35:45;;;;;;;10.00;9.48;;;;;;;;;;5095490;28;20048;-73
2023/01/16 06:38:10;;;;;;;11.65;10.93;;;;;;;;;;5083719;28;20482;-71
2023/01/16 06:40:35;;;;;;;8.95;8.55;;;;;;;;;;5091832;28;20025;-71
2023/01/16 06:43:01;;;;;;;10.48;9.88;;;;;;;;;;5092357;28;20402;-68
2023/01/16 06:45:26;;;;;;;9.68;9.18;;;;;;;;;;5088329;28;20016;-69
2023/01/16 06:47:52;;;;;;;9.90;9.40;;;;;;;;;;5095668;28;20028;-69
2023/01/16 06:50:17;;;;;;;9.73;9.23;;;;;;;;;;5073976;28;20024;-65
2023/01/16 06:52:42;;;;;;;10.48;9.88;;;;;;;;;;5093720;28;20047;-65
2023/01/16 06:55:08;;;;;;;9.80;9.30;;;;;;;;;;5094281;28;20518;-66
2023/01/16 06:57:34;;;;;;;10.30;9.70;;;;;;;;;;5098470;28;20059;-67
2023/01/16 06:59:59;;;;;;;10.23;9.65;;;;;;;;;;5093727;28;20112;-70
2023/01/16 07:02:24;;;;;;;9.98;9.48;;;;;;;;;;5077358;28;20016;-65
2023/01/16 07:04:50;;;;;;;10.40;9.80;;;;;;;;;;5087384;28;20455;-67
2023/01/16 07:07:15;;;;;;;9.10;8.70;;;;;;;;;;5098433;28;20099;-68
2023/01/16 07:09:40;;;;;;;10.23;9.68;;;;;;;;;;5088296;28;20453;-66
2023/01/16 07:12:06;;;;;;;9.57;9.07;;;;;;;;;;5098445;28;20608;-66
2023/01/16 07:22:45;;;;;;;9.35;8.88;;;;;;;;;;5096977;28;20046;-70
2023/01/16 07:25:20;;;;;;;8.80;8.40;;;;;;;;;;5091916;28;20027;-68
2023/01/16 07:27:47;;;;;;;9.98;9.48;;;;;;;;;;5092748;28;20030;-69
2023/01/16 07:30:13;;;;;;;9.75;9.25;;;;;;;;;;5090957;28;20012;-68
2023/01/16 07:32:39;;;;;;;9.20;8.80;;;;;;;;;;5100149;28;20032;-68
2023/01/16 07:35:05;;;;;;;9.65;9.15;;;;;;;;;;5089073;28;20039;-69
2023/01/16 07:37:30;;;;;;;9.85;9.35;;;;;;;;;;5091069;28;20024;-68
2023/01/16 07:39:56;;;;;;;9.52;9.02;;;;;;;;;;5098569;28;20440;-69
2023/01/16 07:42:21;;;;;;;9.68;9.18;;;;;;;;;;5088323;28;20055;-67
2023/01/16 07:44:46;;;;;;;8.98;8.57;;;;;;;;;;5085310;28;20058;-70
2023/01/16 07:47:12;;;;;;;9.00;8.60;;;;;;;;;;5083193;28;20479;-64
2023/01/16 07:49:38;;;;;;;9.43;8.93;;;;;;;;;;5074676;28;20035;-67
2023/01/16 07:52:03;;;;;;;9.57;9.07;;;;;;;;;;5088091;28;20028;-63
2023/01/16 07:54:28;;;;;;;9.40;8.90;;;;;;;;;;5087368;28;20040;-65
2023/01/16 07:56:54;;;;;;;10.05;9.55;;;;;;;;;;5087772;28;20488;-64
2023/01/16 07:59:19;;;;;;;8.93;8.52;;;;;;;;;;5096705;28;20031;-63
2023/01/16 08:01:46;;;;;;;9.45;9.00;;;;;;;;;;5097170;28;20031;-62
2023/01/16 08:04:12;;;;;;;9.90;9.40;;;;;;;;;;5094440;28;20028;-63
2023/01/16 08:06:42;;;;;;;8.70;8.30;;;;;;;;;;5099109;28;20875;-64
2023/01/16 08:09:07;;;;;;;8.75;8.35;;;;;;;;;;5097526;28;20542;-63
2023/01/16 08:11:35;;;;;;;9.15;8.75;;;;;;;;;;5096278;28;20032;-63
2023/01/16 08:14:01;;;;;;;8.73;8.32;;;;;;;;;;5095531;28;20555;-62
2023/01/16 08:16:26;;;;;;;9.07;8.68;;;;;;;;;;5100080;28;20055;-63
2023/01/16 08:18:52;;;;;;;9.20;8.80;;;;;;;;;;5098854;28;20044;-63
2023/01/16 08:21:17;;;;;;;9.10;8.70;;;;;;;;;;5095816;28;20499;-63
2023/01/16 08:23:43;;;;;;;9.18;8.77;;;;;;;;;;5099082;28;20047;-61
2023/01/16 08:26:08;;;;;;;9.00;8.60;;;;;;;;;;5098387;28;20028;-63
2023/01/16 08:28:34;;;;;;;9.57;9.13;;;;;;;;;;5090366;28;20020;-63
2023/01/16 08:31:03;;;;;;;9.75;9.27;;;;;;;;;;5086245;28;20025;-62
2023/01/16 08:33:29;;;;;;;10.30;9.80;;;;;;;;;;5091763;28;20023;-62
2023/01/16 08:35:56;;;;;;;10.60;10.10;;;;;;;;;;5101570;28;20471;-63
2023/01/16 08:38:21;;;;;;;9.60;9.20;;;;;;;;;;5093911;28;20517;-61
2023/01/16 08:40:47;;;;;;;9.00;8.60;;;;;;;;;;5093253;28;20072;-63
2023/01/16 08:51:24;;;;;;;10.07;9.57;;;;;;;;;;5086290;28;20506;-62
2023/01/16 08:53:51;;;;;;;10.15;9.65;;;;;;;;;;5089283;28;20463;-62
2023/01/16 08:56:16;;;;;;;10.00;9.50;;;;;;;;;;5088987;28;20088;-62
2023/01/16 08:58:42;;;;;;;9.20;8.80;;;;;;;;;;5094642;28;20358;-63
2023/01/16 09:01:07;;;;;;;9.57;9.07;;;;;;;;;;5090002;28;20593;-63
2023/01/16 09:03:34;;;;;;;9.50;9.07;;;;;;;;;;5095658;28;20081;-62
2023/01/16 09:05:59;;;;;;;9.88;9.38;;;;;;;;;;5095757;28;20020;-63
2023/01/16 09:08:25;;;;;;;10.05;9.55;;;;;;;;;;5091861;28;20095;-63
2023/01/16 09:13:49;;;;;;;9.30;8.90;;;;;;;;;;5093149;28;20039;-62
2023/01/16 09:16:18;;;;;;;9.35;8.95;;;;;;;;;;5096464;28;20398;-62
2023/01/16 09:18:43;;;;;;;9.73;9.25;;;;;;;;;;5091105;28;20038;-61
2023/01/16 09:21:09;;;;;;;10.30;9.80;;;;;;;;;;5086055;28;20749;-61
2023/01/16 09:23:34;;;;;;;9.45;9.05;;;;;;;;;;5091494;28;20546;-63
2023/01/16 09:25:59;;;;;;;10.02;9.52;;;;;;;;;;5093952;28;20426;-63
2023/01/16 09:28:25;;;;;;;9.50;9.10;;;;;;;;;;5098590;28;20421;-62
2023/01/16 09:30:51;;;;;;;10.88;10.27;;;;;;;;;;5094922;28;20085;-63
2023/01/16 09:33:16;;;;;;;8.95;8.55;;;;;;;;;;5096459;28;20024;-63
2023/01/16 09:35:42;;;;;;;8.85;8.45;;;;;;;;;;5096737;28;20081;-63
2023/01/16 09:38:07;;;;;;;9.30;8.90;;;;;;;;;;5095895;28;20038;-64
2023/01/16 09:40:32;;;;;;;9.85;9.35;;;;;;;;;;5077063;28;20020;-61
2023/01/16 09:45:58;;;;;;;9.90;9.40;;;;;;;;;;5090719;28;20031;-62
2023/01/16 09:48:29;;;;;;;9.45;9.05;;;;;;;;;;5097951;28;20016;-63
2023/01/16 09:50:56;;;;;;;9.77;9.30;;;;;;;;;;5091757;28;20497;-61
2023/01/16 09:59:20;;;;;;;9.75;9.25;;;;;;;;;;5088695;28;20545;-62
2023/01/16 10:01:50;;;;;;;10.32;9.82;;;;;;;;;;5089671;28;20049;-61
2023/01/16 10:04:20;;;;;;;9.73;9.23;;;;;;;;;;5087720;28;20019;-63
2023/01/16 10:07:03;;;;;;;9.57;9.13;;;;;;;;;;5091747;28;20051;-61
2023/01/16 10:09:47;;;;;;;9.50;9.03;;;;;;;;;;5091308;28;20034;-64
2023/01/16 10:12:14;;;;;;;9.60;9.10;;;;;;;;;;5087032;28;20275;-63
2023/01/16 10:14:51;;;;;;;9.20;8.80;;;;;;;;;;5096288;28;20635;-63
2023/01/16 10:17:25;;;;;;;9.90;9.40;;;;;;;;;;5090962;28;20051;-63
2023/01/16 10:20:12;;;;;;;9.63;9.13;;;;;;;;;;5092337;28;20028;-63
2023/01/16 10:22:43;;;;;;;10.50;9.95;;;;;;;;;;5088988;28;20040;-63
2023/01/16 10:25:18;;;;;;;9.73;9.23;;;;;;;;;;5088503;28;20020;-62
2023/01/16 10:27:43;;;;;;;;;;;;;;;;;;5087894;28;20117;-63
2023/01/16 10:30:20;;;;;;;10.05;9.55;;;;;;;;;;5092195;28;19916;-62
2023/01/16 10:33:04;;;;;;;9.00;8.60;;;;;;;;;;5093063;28;20031;-61
2023/01/16 10:35:33;;;;;;;9.25;8.85;;;;;;;;;;5092739;28;20070;-62
2023/01/16 10:38:18;;;;;;;9.85;9.35;;;;;;;;;;5092378;28;20089;-62
2023/01/16 10:40:46;;;;;;;9.40;9.00;;;;;;;;;;5096959;28;20024;-61
2023/01/16 10:49:27;;;;;;;9.20;8.80;;;;;;;;;;5098194;28;20031;-61
2023/01/16 10:51:53;;;;;;;9.25;8.85;;;;;;;;;;5093815;28;20015;-61
2023/01/16 10:54:18;;;;;;;9.30;8.90;;;;;;;;;;5094734;28;20097;-62
2023/01/16 10:56:43;;;;;;;9.27;8.88;;;;;;;;;;5100207;28;20179;-62
2023/01/16 10:59:10;;;;;;;10.32;9.82;;;;;;;;;;5091735;28;20443;-63
2023/01/16 11:01:36;;;;;;;10.30;9.80;;;;;;;;;;5086954;28;20501;-64
2023/01/16 11:04:05;;;;;;;10.80;10.20;;;;;;;;;;5084413;28;20045;-64
2023/01/16 11:06:30;;;;;;;10.30;9.80;;;;;;;;;;5090158;28;20035;-63
2023/01/16 11:09:25;;;;;;;10.40;9.90;;;;;;;;;;5086994;28;20020;-63
2023/01/16 11:20:08;;;;;;;10.52;10.00;;;;;;;;;;5080133;28;20125;-63
2023/01/16 11:22:37;;;;;;;9.77;9.27;;;;;;;;;;5086767;28;20475;-63
2023/01/16 11:25:04;;;;;;;10.10;9.60;;;;;;;;;;5100350;28;20399;-64
2023/01/16 11:27:33;;;;;;;11.00;10.40;;;;;;;;;;5087919;28;20403;-64
2023/01/16 11:30:02;;;;;;;10.98;10.38;;;;;;;;;;5091344;28;20042;-64
2023/01/16 11:32:28;;;;;;;10.07;9.57;;;;;;;;;;5086954;28;20023;-64
2023/01/16 11:34:55;;;;;;;9.73;9.23;;;;;;;;;;5070586;28;20070;-63
2023/01/16 11:37:21;;;;;;;9.88;9.38;;;;;;;;;;5097407;28;20417;-63
2023/01/16 11:39:48;;;;;;;10.38;9.88;;;;;;;;;;5089579;28;20101;-64
2023/01/16 11:47:50;;;;;;;9.55;9.07;;;;;;;;;;5097187;28;20039;-63
2023/01/16 11:50:21;;;;;;;9.93;9.43;;;;;;;;;;5088689;28;20027;-63
2023/01/16 11:52:47;;;;;;;9.93;9.43;;;;;;;;;;5096671;28;20038;-64
2023/01/16 11:55:14;;;;;;;9.55;9.10;;;;;;;;;;5099160;28;20122;-64
2023/01/16 11:57:58;;;;;;;10.05;9.55;;;;;;;;;;5094747;28;20028;-63
2023/01/16 12:00:31;;;;;;;9.70;9.20;;;;;;;;;;5098050;28;20487;-62
2023/01/16 12:02:56;;;;;;;11.25;10.65;;;;;;;;;;5095140;28;20036;-63
2023/01/16 12:05:56;;;;;;;10.13;9.63;;;;;;;;;;5095295;28;20023;-63
2023/01/16 12:08:21;;;;;;;9.55;9.10;;;;;;;;;;5097003;28;20024;-64
2023/01/16 12:10:58;;;;;;;9.55;9.07;;;;;;;;;;5091666;28;20089;-63
2023/01/16 12:16:31;;;;;;;10.23;9.73;;;;;;;;;;5092043;28;20043;-64
2023/01/16 12:19:15;;;;;;;10.48;9.93;;;;;;;;;;5096648;28;20177;-65
2023/01/16 12:21:40;;;;;;;9.25;8.85;;;;;;;;;;5094373;28;20024;-64
2023/01/16 12:24:05;;;;;;;10.25;9.75;;;;;;;;;;5095681;28;20031;-65
2023/01/16 12:26:41;;;;;;;10.30;9.80;;;;;;;;;;5089418;28;20025;-63
2023/01/16 12:29:06;;;;;;;9.52;9.02;;;;;;;;;;5093648;28;20391;-65
2023/01/16 12:31:41;;;;;;;9.50;9.10;;;;;;;;;;5100634;28;20026;-65
2023/01/16 12:34:15;;;;;;;9.75;9.25;;;;;;;;;;5095801;28;20495;-63
2023/01/16 12:36:46;;;;;;;9.32;8.93;;;;;;;;;;5094618;28;20024;-63
2023/01/16 12:39:14;;;;;;;9.55;9.10;;;;;;;;;;5094246;28;20016;-63
2023/01/16 12:44:44;;;;;;;9.60;9.13;;;;;;;;;;5092326;28;20043;-62
2023/01/16 12:47:15;;;;;;;9.23;8.82;;;;;;;;;;5096702;28;20058;-63
2023/01/16 12:49:56;;;;;;;9.35;8.95;;;;;;;;;;5098782;28;20030;-62
2023/01/16 12:52:21;;;;;;;9.63;9.20;;;;;;;;;;5091983;28;20100;-62
2023/01/16 12:54:53;;;;;;;9.07;8.68;;;;;;;;;;5088973;28;20130;-62
2023/01/16 12:57:21;;;;;;;10.00;9.50;;;;;;;;;;5097854;28;20107;-62
2023/01/16 12:59:49;;;;;;;10.10;9.60;;;;;;;;;;5094868;28;20070;-63
2023/01/16 13:02:14;;;;;;;9.57;9.15;;;;;;;;;;5094179;28;20023;-64
2023/01/16 13:05:05;;;;;;;9.32;8.90;;;;;;;;;;5099712;28;20024;-62
2023/01/16 13:07:40;;;;;;;9.85;9.35;;;;;;;;;;5090757;28;20044;-62
2023/01/16 13:13:21;;;;;;;9.15;8.75;;;;;;;;;;4992149;28;20033;-64
2023/01/16 13:15:50;;;;;;;9.40;9.00;;;;;;;;;;5080456;28;20028;-62
2023/01/16 13:18:20;;;;;;;9.88;9.38;;;;;;;;;;5096552;28;20020;-63
2023/01/16 13:20:47;;;;;;;9.75;9.25;;;;;;;;;;5094455;28;20043;-62
2023/01/16 13:23:36;;;;;;;10.40;9.90;;;;;;;;;;5097770;28;20464;-62
2023/01/16 13:26:03;;;;;;;10.38;9.88;;;;;;;;;;5084401;28;20024;-62
2023/01/16 13:28:31;;;;;;;10.00;9.50;;;;;;;;;;5099450;28;20479;-62
2023/01/16 13:30:58;;;;;;;10.30;9.80;;;;;;;;;;5098627;28;20026;-63
2023/01/16 13:33:27;;;;;;;10.02;9.52;;;;;;;;;;5098009;28;20421;-61
2023/01/16 13:35:58;;;;;;;10.18;9.68;;;;;;;;;;5094656;28;20023;-62
2023/01/16 13:38:23;;;;;;;10.27;9.77;;;;;;;;;;5101489;28;20382;-63
2023/01/16 13:40:49;;;;;;;10.05;9.55;;;;;;;;;;5092518;28;20020;-63
2023/01/16 13:46:02;;;;;;;10.30;9.80;;;;;;;;;;5101601;28;20020;-62
2023/01/16 13:48:30;;;;;;;10.02;9.52;;;;;;;;;;5104149;28;20016;-61
2023/01/16 13:51:00;;;;;;;9.90;9.40;;;;;;;;;;5095648;28;20019;-62
2023/01/16 13:53:26;;;;;;;10.02;9.52;;;;;;;;;;5099160;28;20024;-69
2023/01/16 13:56:02;;;;;;;10.20;9.70;;;;;;;;;;5096215;28;20020;-64
2023/01/16 13:58:28;;;;;;;10.15;9.65;;;;;;;;;;5078207;28;20024;-67
2023/01/16 14:00:57;;;;;;;10.23;9.73;;;;;;;;;;5095171;28;20035;-66
2023/01/16 14:03:27;;;;;;;10.02;9.52;;;;;;;;;;5090348;28;20028;-66
2023/01/16 14:06:10;;;;;;;10.13;9.63;;;;;;;;;;5094313;28;20425;-66
2023/01/16 14:09:05;;;;;;;10.02;9.52;;;;;;;;;;5089196;28;20027;-67
2023/01/16 14:11:33;;;;;;;11.73;11.02;;;;;;;;;;5094056;28;20019;-66
2023/01/16 14:14:17;;;;;;;9.70;9.20;;;;;;;;;;5094846;28;20547;-67
2023/01/16 14:16:43;;;;;;;10.07;9.57;;;;;;;;;;5093627;28;20032;-66
2023/01/16 14:19:14;;;;;;;12.63;11.88;;;;;;;;;;5088306;28;20275;-65
2023/01/16 14:24:00;;;;;;;11.32;10.73;;;;;;;;;;5089562;28;20022;-64
2023/01/16 14:24:37;;;;;;;9.82;9.32;;;;;;;;;;5085461;28;20036;-64
2023/01/16 14:27:02;;;;;;;10.15;9.65;;;;;;;;;;5091423;28;20026;-66
2023/01/16 14:29:31;;;;;;;9.80;9.30;;;;;;;;;;5091242;28;20170;-64
2023/01/16 14:31:56;;;;;;;10.32;9.80;;;;;;;;;;5095723;28;20034;-65
2023/01/16 14:34:23;;;;;;;9.63;9.13;;;;;;;;;;5093903;28;20047;-66
2023/01/16 14:36:50;;;;;;;9.80;9.30;;;;;;;;;;5090814;28;20031;-64
2023/01/16 14:39:27;;;;;;;9.40;9.00;;;;;;;;;;5094905;28;20016;-66
2023/01/16 14:56:30;;;;;;;9.45;9.00;;;;;;;;;;5086700;28;20034;-65
2023/01/16 14:58:58;;;;;;;10.40;9.90;;;;;;;;;;5087666;28;20028;-63
2023/01/16 15:04:18;;;;;;;11.85;11.15;;;;;;;;;;5088361;28;20055;-65
2023/01/16 15:06:44;;;;;;;9.63;9.13;;;;;;;;;;5094350;28;20108;-64
2023/01/16 15:09:19;;;;;;;10.07;9.57;;;;;;;;;;5092345;28;20032;-66
2023/01/16 15:11:48;;;;;;;10.05;9.55;;;;;;;;;;5094815;28;20020;-65
2023/01/16 15:14:28;;;;;;;9.45;9.05;;;;;;;;;;5094949;28;20089;-65
2023/01/16 15:22:55;;;;;;;9.75;9.25;;;;;;;;;;5084408;28;20027;-64
2023/01/16 15:25:48;;;;;;;10.05;9.55;;;;;;;;;;5085830;28;20027;-65
2023/01/16 15:28:36;;;;;;;9.90;9.40;;;;;;;;;;5093216;28;20031;-64
2023/01/16 15:31:05;;;;;;;9.80;9.30;;;;;;;;;;5080740;28;20383;-64
2023/01/16 15:36:15;;;;;;;9.68;9.18;;;;;;;;;;5091775;28;20039;-65
2023/01/16 15:38:44;;;;;;;9.60;9.13;;;;;;;;;;5090523;28;20115;-64
2023/01/16 15:41:10;;;;;;;11.10;10.50;;;;;;;;;;5097568;28;20024;-65
2023/01/16 15:46:46;;;;;;;10.00;9.50;;;;;;;;;;5095979;28;20496;-65
2023/01/16 15:49:21;;;;;;;9.68;9.18;;;;;;;;;;5088086;28;20055;-64
2023/01/16 15:51:52;;;;;;;9.45;9.05;;;;;;;;;;5091004;28;20048;-63
2023/01/16 15:54:18;;;;;;;10.00;9.48;;;;;;;;;;5096856;28;20043;-67
2023/01/16 15:56:44;;;;;;;10.35;9.85;;;;;;;;;;5089036;28;20359;-64
2023/01/16 15:59:25;;;;;;;10.57;10.05;;;;;;;;;;5090197;28;20043;-67
2023/01/16 16:01:50;;;;;;;12.18;11.48;;;;;;;;;;5093695;28;20459;-64
2023/01/16 16:04:16;;;;;;;11.20;10.60;;;;;;;;;;5096359;28;20063;-63
2023/01/16 16:06:41;;;;;;;10.68;10.07;;;;;;;;;;5090996;28;20532;-63
2023/01/16 16:09:13;;;;;;;10.65;10.05;;;;;;;;;;5088819;28;20024;-64
2023/01/16 16:11:55;;;;;;;10.27;9.77;;;;;;;;;;5089798;28;20273;-64
2023/01/16 16:19:49;;;;;;;10.20;9.70;;;;;;;;;;5083228;28;20110;-63
2023/01/16 16:25:17;;;;;;;9.85;9.35;;;;;;;;;;5098517;28;20076;-66
2023/01/16 16:27:43;;;;;;;9.95;9.45;;;;;;;;;;5101992;28;20024;-65